createdAt,value
2022-09-16T00:09:02.189Z,97675.65
2022-09-16T00:19:30.137Z,97682.02
2022-09-16T00:29:58.122Z,97684.10
2022-09-16T00:40:26.154Z,97697.41
2022-09-16T00:50:58.003Z,97695.52
2022-09-16T01:01:26.197Z,97697.79
2022-09-16T01:11:54.426Z,97706.67
2022-09-16T01:22:38.292Z,97698.45
2022-09-16T01:33:11.809Z,97699.50
2022-09-16T01:43:54.786Z,97697.89
2022-09-16T01:54:27.746Z,97697.94
2022-09-16T02:05:00.116Z,97704.27
2022-09-16T02:15:31.602Z,97700.13
2022-09-16T02:26:01.676Z,97696.27
2022-09-16T02:36:30.986Z,97704.33
2022-09-16T02:47:06.257Z,97707.29
2022-09-16T02:57:34.705Z,97717.09
2022-09-16T03:08:04.283Z,97713.71
2022-09-16T03:18:48.695Z,97715.00
2022-09-16T03:29:25.824Z,97722.34
2022-09-16T03:39:58.269Z,97726.55
2022-09-16T03:50:26.307Z,97720.99
2022-09-16T04:00:54.377Z,97716.18
2022-09-16T04:11:22.377Z,97712.40
2022-09-16T04:21:50.340Z,97706.76
2022-09-16T04:32:18.357Z,97705.63
2022-09-16T04:42:51.461Z,97702.46
2022-09-16T04:53:19.528Z,97702.85
2022-09-16T05:03:49.013Z,97710.55
2022-09-16T05:14:19.146Z,97709.67
2022-09-16T05:24:47.145Z,97715.95
2022-09-16T05:35:15.444Z,97729.58
2022-09-16T05:45:43.501Z,97731.44
2022-09-16T05:56:15.554Z,97722.16
2022-09-16T06:06:45.581Z,97693.13
2022-09-16T06:17:13.634Z,97709.85
2022-09-16T06:27:41.598Z,97723.16
2022-09-16T06:38:09.599Z,97717.81
2022-09-16T06:48:37.747Z,97710.40
2022-09-16T06:59:06.040Z,97705.56
2022-09-16T07:09:34.162Z,97712.70
2022-09-16T07:20:02.110Z,97730.55
2022-09-16T07:30:31.296Z,97744.79
2022-09-16T07:41:05.089Z,97747.96
2022-09-16T07:51:33.741Z,97751.42
2022-09-16T08:02:01.806Z,97752.39
2022-09-16T08:12:32.558Z,97750.41
2022-09-16T08:23:00.522Z,97748.77
2022-09-16T08:33:28.568Z,97759.44
2022-09-16T08:44:04.765Z,97758.08
2022-09-16T08:54:36.623Z,97749.61
2022-09-16T09:05:11.817Z,97743.85
2022-09-16T09:15:46.578Z,97751.33
2022-09-16T09:26:21.910Z,97747.02
2022-09-16T09:37:02.969Z,97746.80
2022-09-16T09:47:35.426Z,97741.95
2022-09-16T09:58:24.893Z,97740.75
2022-09-16T10:08:55.606Z,97726.17
2022-09-16T10:19:26.778Z,97718.34
2022-09-16T10:30:16.566Z,97719.31
2022-09-16T10:40:54.430Z,97730.70
2022-09-16T10:51:28.059Z,97747.32
2022-09-16T11:02:06.206Z,97746.55
2022-09-16T11:13:01.883Z,97737.91
2022-09-16T11:23:45.070Z,97731.90
2022-09-16T11:34:26.134Z,97720.63
2022-09-16T11:45:02.665Z,97702.41
2022-09-16T11:55:46.957Z,97693.25
2022-09-16T12:06:20.437Z,97684.14
2022-09-16T12:16:52.869Z,97675.66
2022-09-16T12:27:38.293Z,97670.98
2022-09-16T12:38:06.721Z,97672.84
2022-09-16T12:49:07.699Z,97661.10
2022-09-16T12:59:55.237Z,97646.55
2022-09-16T13:10:40.842Z,97642.32
2022-09-16T13:21:26.455Z,97644.59
2022-09-16T13:42:27.437Z,97644.57
2022-09-16T13:52:56.308Z,97642.91
2022-09-16T14:03:56.677Z,97630.88
2022-09-16T14:14:46.294Z,97620.45
2022-09-16T14:36:01.832Z,97607.00
2022-09-16T14:46:31.227Z,97602.41
2022-09-16T14:57:05.123Z,97597.18
2022-09-16T15:07:36.121Z,97611.59
2022-09-16T15:18:07.400Z,97613.98
2022-09-16T15:28:35.340Z,97615.52
2022-09-16T15:39:03.512Z,97606.08
2022-09-16T15:49:37.091Z,97601.63
2022-09-16T16:00:12.595Z,97600.48
2022-09-16T16:10:42.161Z,97597.61
2022-09-16T16:21:11.596Z,97584.17
2022-09-16T16:31:39.749Z,97583.83
2022-09-16T16:42:09.006Z,97589.02
2022-09-16T16:52:37.185Z,97597.30
2022-09-16T17:03:05.455Z,97593.49
2022-09-16T17:13:33.712Z,97587.27
2022-09-16T17:24:02.034Z,97595.60
2022-09-16T17:34:30.307Z,97586.55
2022-09-16T17:44:58.287Z,97612.95
2022-09-16T17:55:26.348Z,97609.34
2022-09-16T18:05:54.293Z,97621.95
2022-09-16T18:16:23.599Z,97618.45
2022-09-16T18:26:51.603Z,97621.52
2022-09-16T18:37:19.590Z,97631.64
2022-09-16T18:47:47.748Z,97640.23
2022-09-16T18:58:15.779Z,97637.52
2022-09-16T19:08:44.408Z,97637.73
2022-09-16T19:19:14.032Z,97644.88
2022-09-16T19:29:42.015Z,97645.94
2022-09-16T19:40:12.901Z,97642.39
2022-09-16T19:50:44.485Z,97646.98
2022-09-16T20:01:16.582Z,97651.54
2022-09-16T20:11:46.817Z,97646.21
2022-09-16T20:22:14.793Z,97649.88
2022-09-16T20:32:42.718Z,97652.61
2022-09-16T20:43:08.998Z,97657.17
2022-09-16T20:53:37.714Z,97669.85
2022-09-16T21:04:07.715Z,97669.52
2022-09-16T21:14:36.277Z,97664.59
2022-09-16T21:25:04.579Z,97664.45
2022-09-16T21:35:32.673Z,97668.27
2022-09-16T21:46:02.941Z,97670.98
2022-09-16T21:56:31.470Z,97684.14
2022-09-16T22:06:59.384Z,97690.33
2022-09-16T22:17:27.696Z,97685.70
2022-09-16T22:27:55.574Z,97679.05
2022-09-16T22:38:23.457Z,97689.05
2022-09-16T22:48:51.988Z,97689.69
2022-09-16T22:59:21.295Z,97691.16
2022-09-16T23:09:49.253Z,97685.20
2022-09-16T23:20:15.630Z,97687.17
2022-09-16T23:30:43.527Z,97675.16
2022-09-16T23:41:15.439Z,97668.31
2022-09-16T23:51:43.573Z,97668.95
